Etusivu
METAR-TAF:

METAR-TAF

Lentoasemat :

Irkutsk, Venäjä

Irkutskin lentoasema

Leveyspiiri: 52-16N, Pituuspiiri: 104-19E, korkeus merenpinnasta: 513 m

Tämänhetkinen sää

Tämä raportti tehtiin 21 minuuttia sitten, kello 11.00 UTC
Tuuli 8 kn luoteesta
Lämpötila -9°C
Kosteus 79%
Ilmanpaine 1023 hPa
Näkyvyys 10 km tai enemmän
Hajanaisia pilviä 3600 ft:n korkeudessa, Cumulonimbus.

METAR: UIII 231100Z 32004MPS 9999 SCT036CB M09/M12 Q1023 R30/490240 NOSIG RMK QFE722/0963

Aika: 19:21 (11:21 UTC)

Sääennuste

Tämä raportti tehtiin 3 tuntia ja 21 minuuttia sitten, kello 08.00 UTC
Ennuste voimassa 23. päivästä klo 09 UTC - 24. päivään klo 09 UTC
Tuuli 10 kn luoteesta
Näkyvyys: 3100 m
Hajonneita pilviä 1100 ft:n korkeudessa, Cumulonimbus.
heikkoja lumikuuroja

TAF: UIII 230800Z 2309/2409 32005MPS 3100 -SHSN BKN011CB

Säähavainnot ja -ennusteet yli 4000 lentoasemalta (METAR- ja TAF-raportit).

Käytössä olevat sääasemat on merkitty karttaan keltaisilla ja punaisilla pisteillä.

Aseta hiiri pisteen päälle nähdäksesi sääaseman nimen.

Klikkaa sitten nähdäksesi säähavainnot ja -ennusteet.

Kartan vaihtaminen: klikkaa mustalla rastilla varustettuja vihreitä pisteitä, niin voit zoomata sisään; viivalla varustettua vihreää pistettä, niin voit zoomata ulos tai vihreitä nuolia, niin pääset viereisille kartoille.


METAR-TAF: